createdAt,value
2017-11-22T00:00:06.223Z,95.80
2017-11-22T00:02:33.735Z,95.88
2017-11-22T00:05:01.269Z,95.92
2017-11-22T00:07:28.778Z,95.89
2017-11-22T00:09:56.303Z,96.02
2017-11-22T00:12:23.828Z,95.90
2017-11-22T00:14:51.339Z,96.04
2017-11-22T00:17:18.855Z,95.81
2017-11-22T00:19:46.373Z,95.97
2017-11-22T00:22:13.883Z,95.97
2017-11-22T00:24:41.398Z,95.82
2017-11-22T00:27:08.913Z,95.82
2017-11-22T00:29:36.430Z,96.06
2017-11-22T00:32:03.956Z,96.19
2017-11-22T00:34:31.483Z,96.04
2017-11-22T00:36:58.995Z,96.12
2017-11-22T00:39:26.505Z,95.96
2017-11-22T00:41:54.021Z,95.83
2017-11-22T00:44:21.534Z,96.09
2017-11-22T00:46:49.048Z,96.06
2017-11-22T00:49:16.554Z,96.16
2017-11-22T00:51:44.063Z,96.07
2017-11-22T00:54:11.568Z,96.08
2017-11-22T00:56:39.097Z,96.28
2017-11-22T00:59:06.606Z,96.14
2017-11-22T01:01:34.126Z,96.30
2017-11-22T01:04:01.630Z,96.27
2017-11-22T01:06:29.140Z,96.11
2017-11-22T01:08:56.651Z,95.77
2017-11-22T01:11:24.163Z,95.91
2017-11-22T01:13:51.670Z,96.11
2017-11-22T01:16:19.185Z,96.22
2017-11-22T01:18:46.695Z,95.77
2017-11-22T01:21:14.208Z,95.57
2017-11-22T01:23:41.722Z,95.57
2017-11-22T01:26:09.231Z,95.59
2017-11-22T01:28:36.773Z,95.73
2017-11-22T01:31:04.290Z,95.67
2017-11-22T01:33:31.811Z,95.91
2017-11-22T01:35:59.339Z,95.48
2017-11-22T01:38:26.855Z,95.98
2017-11-22T01:40:54.375Z,95.70
2017-11-22T01:43:21.886Z,95.66
2017-11-22T01:45:49.411Z,95.76
2017-11-22T01:48:16.927Z,96.05
2017-11-22T01:50:44.438Z,95.87
2017-11-22T01:53:11.956Z,95.60
2017-11-22T01:55:39.470Z,95.84
2017-11-22T01:58:06.987Z,95.92
2017-11-22T02:00:46.305Z,96.00
2017-11-22T02:03:18.771Z,95.94
2017-11-22T02:05:46.287Z,95.89
2017-11-22T02:08:13.807Z,95.76
2017-11-22T02:10:41.326Z,95.82
2017-11-22T02:13:08.842Z,95.98
2017-11-22T02:15:36.375Z,95.88
2017-11-22T02:18:03.898Z,95.74
2017-11-22T02:20:31.433Z,96.22
2017-11-22T02:22:58.964Z,95.94
2017-11-22T02:25:26.481Z,95.84
2017-11-22T02:27:54.012Z,96.00
2017-11-22T02:30:21.537Z,96.56
2017-11-22T02:32:49.062Z,96.37
2017-11-22T02:35:16.581Z,96.40
2017-11-22T02:37:44.102Z,96.58
2017-11-22T02:40:11.621Z,96.51
2017-11-22T02:42:39.146Z,96.42
2017-11-22T02:45:06.793Z,96.51
2017-11-22T02:47:34.319Z,96.82
2017-11-22T02:50:01.848Z,96.84
2017-11-22T02:52:29.382Z,96.50
2017-11-22T02:54:56.908Z,96.71
2017-11-22T02:57:24.432Z,97.05
2017-11-22T02:59:51.950Z,97.03
2017-11-22T03:02:19.474Z,96.93
2017-11-22T03:04:47.002Z,96.85
2017-11-22T03:07:14.522Z,96.73
2017-11-22T03:09:42.035Z,96.87
2017-11-22T03:12:09.562Z,97.09
2017-11-22T03:14:37.076Z,97.05
2017-11-22T03:17:04.591Z,96.98
2017-11-22T03:19:32.109Z,96.84
2017-11-22T03:21:59.631Z,96.44
2017-11-22T03:24:27.154Z,96.48
2017-11-22T03:26:54.679Z,96.33
2017-11-22T03:29:22.184Z,96.09
2017-11-22T03:31:49.715Z,96.02
2017-11-22T03:34:17.230Z,96.01
2017-11-22T03:36:44.747Z,95.84
2017-11-22T03:39:12.262Z,95.76
2017-11-22T03:41:39.792Z,95.53
2017-11-22T03:44:07.314Z,95.53
2017-11-22T03:46:34.839Z,95.31
2017-11-22T03:49:02.361Z,95.25
2017-11-22T03:51:35.621Z,95.33
2017-11-22T03:54:03.143Z,95.15
2017-11-22T03:56:30.666Z,95.01
2017-11-22T03:58:58.192Z,94.94
2017-11-22T04:01:25.711Z,95.02
2017-11-22T04:03:53.243Z,94.75
2017-11-22T04:06:20.767Z,94.72
2017-11-22T04:08:48.302Z,94.69
2017-11-22T04:11:18.689Z,94.64
2017-11-22T04:13:46.211Z,94.58
2017-11-22T04:16:13.757Z,94.72
2017-11-22T04:18:46.803Z,94.61
2017-11-22T04:21:14.340Z,94.52
2017-11-22T04:23:41.858Z,94.46
2017-11-22T04:26:09.374Z,94.45
2017-11-22T04:28:36.886Z,94.44
2017-11-22T04:31:04.407Z,94.45
2017-11-22T04:33:31.931Z,94.33
2017-11-22T04:35:59.451Z,94.33
2017-11-22T04:38:26.992Z,94.38
2017-11-22T04:40:54.527Z,94.29
2017-11-22T04:43:22.051Z,94.34
2017-11-22T04:45:49.574Z,94.28
2017-11-22T04:48:17.095Z,94.21
2017-11-22T04:50:44.612Z,94.11
2017-11-22T04:53:12.126Z,93.99
2017-11-22T04:55:39.646Z,94.04
2017-11-22T04:58:07.182Z,94.00
2017-11-22T05:00:34.703Z,93.82
2017-11-22T05:03:02.215Z,93.79
2017-11-22T05:05:29.734Z,93.62
2017-11-22T05:07:57.275Z,93.50
2017-11-22T05:10:24.804Z,93.41
2017-11-22T05:12:52.332Z,93.46
2017-11-22T05:15:19.863Z,93.42
2017-11-22T05:17:47.387Z,93.32
2017-11-22T05:20:14.909Z,93.32
2017-11-22T05:22:42.442Z,93.31
2017-11-22T05:25:09.962Z,93.23
2017-11-22T05:27:37.486Z,93.07
2017-11-22T05:30:05.008Z,93.05
2017-11-22T05:32:32.526Z,93.17
2017-11-22T05:35:00.046Z,93.15
2017-11-22T05:37:27.569Z,93.21
2017-11-22T05:39:55.118Z,93.35
2017-11-22T05:42:22.647Z,93.25
2017-11-22T05:44:50.185Z,93.17
2017-11-22T05:47:17.709Z,93.07
2017-11-22T05:49:45.231Z,93.09
2017-11-22T05:52:12.755Z,93.14
2017-11-22T05:54:40.283Z,93.19
2017-11-22T05:57:07.813Z,93.06
2017-11-22T05:59:35.333Z,92.86
2017-11-22T06:02:02.861Z,92.94
2017-11-22T06:04:30.395Z,92.99
2017-11-22T06:06:57.914Z,92.99
2017-11-22T06:09:25.440Z,93.04
2017-11-22T06:11:52.954Z,92.82
2017-11-22T06:14:20.475Z,93.00
2017-11-22T06:16:48.006Z,92.95
2017-11-22T06:19:15.539Z,92.94
2017-11-22T06:21:43.057Z,92.81
2017-11-22T06:24:10.591Z,92.89
2017-11-22T06:26:38.119Z,93.14
2017-11-22T06:29:05.638Z,93.10
2017-11-22T06:31:33.158Z,93.08
2017-11-22T06:34:00.679Z,93.10
2017-11-22T06:36:28.206Z,92.98
2017-11-22T06:38:55.732Z,92.97
2017-11-22T06:41:23.251Z,93.09
2017-11-22T06:43:50.764Z,93.02
2017-11-22T06:46:18.295Z,93.02
2017-11-22T06:48:45.813Z,93.17
2017-11-22T06:51:13.341Z,93.02
2017-11-22T06:53:40.892Z,93.09
2017-11-22T06:56:08.420Z,93.04
2017-11-22T06:58:35.946Z,93.09
2017-11-22T07:01:03.471Z,93.10
2017-11-22T07:03:32.767Z,93.24
2017-11-22T07:06:00.288Z,93.36
2017-11-22T07:08:27.812Z,93.38
2017-11-22T07:10:55.335Z,93.41
2017-11-22T07:13:22.850Z,93.45
2017-11-22T07:15:55.333Z,93.44
2017-11-22T07:18:22.840Z,93.31
2017-11-22T07:20:50.363Z,93.23
2017-11-22T07:23:17.991Z,93.28
2017-11-22T07:25:45.535Z,93.31
2017-11-22T07:28:13.055Z,93.26
2017-11-22T07:30:40.586Z,93.18
2017-11-22T07:33:08.113Z,93.14
2017-11-22T07:35:41.252Z,93.09
2017-11-22T07:38:08.791Z,92.94
2017-11-22T07:40:36.310Z,92.88
2017-11-22T07:43:03.831Z,92.72
2017-11-22T07:45:31.368Z,92.64
2017-11-22T07:48:04.525Z,92.62
2017-11-22T07:50:32.045Z,92.52
2017-11-22T07:53:00.473Z,92.47
2017-11-22T07:55:27.987Z,92.23
2017-11-22T07:57:55.508Z,92.03
2017-11-22T08:00:23.027Z,91.97
2017-11-22T08:02:56.238Z,91.79
2017-11-22T08:05:23.768Z,91.16
2017-11-22T08:07:51.293Z,90.96
2017-11-22T08:10:18.833Z,90.57
2017-11-22T08:12:46.365Z,90.62
2017-11-22T08:15:13.908Z,90.44
2017-11-22T08:17:42.525Z,90.01
2017-11-22T08:20:11.863Z,89.88
2017-11-22T08:22:39.382Z,90.00
2017-11-22T08:25:07.872Z,90.16
2017-11-22T08:27:35.390Z,90.17
2017-11-22T08:30:02.914Z,89.78
2017-11-22T08:32:30.441Z,89.77
2017-11-22T08:34:57.963Z,89.36
2017-11-22T08:37:25.477Z,89.69
2017-11-22T08:39:52.999Z,89.60
2017-11-22T08:42:26.194Z,89.47
2017-11-22T08:44:53.720Z,89.25
2017-11-22T08:47:21.246Z,89.75
2017-11-22T08:49:48.763Z,90.02
2017-11-22T08:52:16.273Z,89.58
2017-11-22T08:54:49.416Z,90.03
2017-11-22T08:57:22.612Z,89.83
2017-11-22T08:59:55.778Z,89.36
2017-11-22T09:02:23.330Z,89.54
2017-11-22T09:04:52.628Z,89.07
2017-11-22T09:07:20.145Z,89.23
2017-11-22T09:09:47.692Z,88.76
2017-11-22T09:12:20.771Z,88.82
2017-11-22T09:14:48.287Z,88.21
2017-11-22T09:17:19.188Z,88.52
2017-11-22T09:19:46.723Z,87.56
2017-11-22T09:22:14.238Z,87.65
2017-11-22T09:27:48.954Z,87.10
2017-11-22T09:30:16.486Z,86.48
2017-11-22T09:32:44.007Z,85.32
2017-11-22T09:35:19.110Z,85.47
2017-11-22T09:37:46.635Z,85.99
2017-11-22T09:40:14.287Z,85.90
2017-11-22T09:42:41.814Z,86.38
2017-11-22T09:45:09.341Z,86.12
2017-11-22T09:47:36.866Z,86.33
2017-11-22T09:50:04.386Z,86.49
2017-11-22T09:52:31.904Z,85.91
2017-11-22T09:55:00.007Z,86.68
2017-11-22T09:57:27.530Z,86.38
2017-11-22T09:59:55.054Z,86.11
2017-11-22T10:02:22.584Z,85.46
2017-11-22T10:04:50.108Z,86.82
2017-11-22T10:07:18.505Z,86.91
2017-11-22T10:09:46.077Z,86.38
2017-11-22T10:12:13.609Z,86.58
2017-11-22T10:14:41.123Z,86.10
2017-11-22T10:17:12.635Z,86.29
2017-11-22T10:19:43.977Z,85.21
2017-11-22T10:22:11.515Z,86.38
2017-11-22T10:24:45.067Z,85.45
2017-11-22T10:27:18.237Z,85.38
2017-11-22T10:29:46.569Z,85.77
2017-11-22T10:32:19.723Z,84.80
2017-11-22T10:34:47.246Z,85.74
2017-11-22T10:37:14.763Z,85.09
2017-11-22T10:39:42.290Z,84.73
2017-11-22T10:42:09.823Z,85.13
2017-11-22T10:44:37.352Z,84.78
2017-11-22T10:47:04.877Z,84.76
2017-11-22T10:49:32.403Z,85.12
2017-11-22T10:51:59.924Z,84.53
2017-11-22T10:54:27.441Z,84.83
2017-11-22T10:56:54.969Z,84.78
2017-11-22T10:59:22.502Z,84.76
2017-11-22T11:01:50.028Z,84.81
2017-11-22T11:04:17.551Z,84.55
2017-11-22T11:06:45.066Z,85.18
2017-11-22T11:09:12.579Z,84.34
2017-11-22T11:11:40.123Z,85.07
2017-11-22T11:14:07.652Z,84.18
2017-11-22T11:16:35.179Z,84.54
2017-11-22T11:19:02.707Z,83.89
2017-11-22T11:21:30.232Z,83.84
2017-11-22T11:23:57.763Z,84.22
2017-11-22T11:26:25.291Z,84.99
2017-11-22T11:28:52.810Z,84.76
2017-11-22T11:31:20.342Z,84.54
2017-11-22T11:33:47.871Z,84.36
2017-11-22T11:36:27.133Z,83.60
2017-11-22T11:38:54.654Z,83.67
2017-11-22T11:41:22.179Z,83.60
2017-11-22T11:43:49.702Z,83.57
2017-11-22T11:46:17.222Z,83.83
2017-11-22T11:48:44.755Z,83.44
2017-11-22T11:51:12.274Z,83.14
2017-11-22T11:53:39.805Z,82.38
2017-11-22T11:56:07.315Z,83.30
2017-11-22T11:58:34.844Z,83.55
2017-11-22T12:01:02.419Z,83.57
2017-11-22T12:03:29.986Z,83.03
2017-11-22T12:05:57.507Z,82.97
2017-11-22T12:08:25.031Z,82.41
2017-11-22T12:10:52.550Z,83.25
2017-11-22T12:13:20.061Z,83.40
2017-11-22T12:15:47.586Z,82.71
2017-11-22T12:18:17.951Z,82.87
2017-11-22T12:23:41.190Z,81.95
2017-11-22T12:26:08.713Z,82.68
2017-11-22T12:28:36.236Z,82.89
2017-11-22T12:31:03.749Z,82.39
2017-11-22T12:33:31.264Z,82.39
2017-11-22T12:35:58.785Z,82.31
2017-11-22T12:38:26.298Z,82.39
2017-11-22T12:40:53.830Z,82.43
2017-11-22T12:43:21.359Z,82.12
2017-11-22T12:45:48.884Z,82.69
2017-11-22T12:48:16.409Z,82.47
2017-11-22T12:50:43.941Z,81.82
2017-11-22T12:53:11.466Z,81.48
2017-11-22T12:55:38.987Z,81.64
2017-11-22T12:58:12.514Z,82.37
2017-11-22T13:00:40.035Z,82.76
2017-11-22T13:03:07.554Z,82.43
2017-11-22T13:05:35.070Z,82.22
2017-11-22T13:08:02.699Z,82.14
2017-11-22T13:10:33.952Z,82.48
2017-11-22T13:13:01.464Z,81.40
2017-11-22T13:15:28.986Z,81.83
2017-11-22T13:17:56.522Z,82.42
2017-11-22T13:20:24.042Z,82.47
2017-11-22T13:22:51.572Z,82.24
2017-11-22T13:25:19.085Z,81.76
2017-11-22T13:27:46.597Z,81.87
2017-11-22T13:30:14.113Z,82.23
2017-11-22T13:32:41.630Z,82.29
2017-11-22T13:35:09.162Z,82.76
2017-11-22T13:37:36.699Z,81.81
2017-11-22T13:40:04.228Z,82.12
2017-11-22T13:42:31.750Z,81.35
2017-11-22T13:44:59.262Z,82.05
2017-11-22T13:47:26.774Z,82.11
2017-11-22T13:49:54.300Z,82.20
2017-11-22T13:52:21.824Z,81.64
2017-11-22T13:54:49.363Z,82.27
2017-11-22T13:57:16.893Z,82.02
2017-11-22T13:59:44.426Z,81.89
2017-11-22T14:02:11.949Z,82.20
2017-11-22T14:04:39.470Z,82.35
2017-11-22T14:07:06.982Z,82.11
2017-11-22T14:09:34.498Z,81.74
2017-11-22T14:12:02.010Z,82.44
2017-11-22T14:14:29.525Z,82.93
2017-11-22T14:16:57.036Z,82.05
2017-11-22T14:19:24.553Z,82.13
2017-11-22T14:21:52.073Z,82.26
2017-11-22T14:24:19.587Z,81.59
2017-11-22T14:26:47.108Z,81.96
2017-11-22T14:29:14.637Z,81.49
2017-11-22T14:31:42.184Z,82.09
2017-11-22T14:34:09.702Z,81.59
2017-11-22T14:36:37.230Z,82.16
2017-11-22T14:39:04.743Z,81.62
2017-11-22T14:41:32.263Z,81.95
2017-11-22T14:43:59.798Z,81.80
2017-11-22T14:46:27.319Z,82.23
2017-11-22T14:48:54.845Z,82.10
2017-11-22T14:51:22.370Z,82.57
2017-11-22T14:53:49.887Z,81.71
2017-11-22T14:56:17.412Z,82.74
2017-11-22T14:58:44.934Z,82.10
2017-11-22T15:01:12.470Z,82.62
2017-11-22T15:03:39.995Z,82.69
2017-11-22T15:06:07.524Z,82.59
2017-11-22T15:08:35.051Z,82.49
2017-11-22T15:11:02.567Z,82.31
2017-11-22T15:13:30.087Z,82.69
2017-11-22T15:15:57.618Z,81.84
2017-11-22T15:18:25.142Z,82.50
2017-11-22T15:20:52.658Z,82.97
2017-11-22T15:23:20.214Z,82.62
2017-11-22T15:25:47.731Z,82.27
2017-11-22T15:28:15.246Z,82.39
2017-11-22T15:30:42.778Z,82.04
2017-11-22T15:33:10.303Z,82.73
2017-11-22T15:35:37.821Z,82.94
2017-11-22T15:38:05.339Z,82.86
2017-11-22T15:40:32.856Z,82.42
2017-11-22T15:43:00.379Z,82.80
2017-11-22T15:45:27.906Z,82.89
2017-11-22T15:47:55.425Z,82.29
2017-11-22T15:50:22.938Z,82.73
2017-11-22T15:52:50.474Z,82.89
2017-11-22T15:55:17.998Z,82.15
2017-11-22T15:57:45.525Z,82.49
2017-11-22T16:00:13.051Z,81.80
2017-11-22T16:02:40.571Z,82.41
2017-11-22T16:05:08.105Z,82.58
2017-11-22T16:07:35.622Z,81.97
2017-11-22T16:10:03.148Z,81.32
2017-11-22T16:12:30.697Z,82.12
2017-11-22T16:14:58.253Z,81.37
2017-11-22T16:17:25.780Z,81.50
2017-11-22T16:19:53.303Z,82.11
2017-11-22T16:22:20.827Z,81.33
2017-11-22T16:24:48.352Z,81.91
2017-11-22T16:27:15.868Z,81.35
2017-11-22T16:29:43.401Z,81.03
2017-11-22T16:32:10.922Z,81.26
2017-11-22T16:34:38.446Z,81.18
2017-11-22T16:37:05.983Z,81.32
2017-11-22T16:39:33.507Z,81.06
2017-11-22T16:42:01.022Z,81.12
2017-11-22T16:44:28.544Z,81.00
2017-11-22T16:46:56.066Z,81.23
2017-11-22T16:49:23.592Z,80.70
2017-11-22T16:51:51.115Z,81.61
2017-11-22T16:54:18.637Z,81.41
2017-11-22T16:56:46.159Z,81.64
2017-11-22T16:59:13.681Z,81.75
2017-11-22T17:01:41.235Z,82.06
2017-11-22T17:04:08.766Z,82.05
2017-11-22T17:06:36.300Z,81.51
2017-11-22T17:09:03.855Z,81.77
2017-11-22T17:11:31.374Z,81.81
2017-11-22T17:13:58.891Z,81.15
2017-11-22T17:16:26.405Z,81.25
2017-11-22T17:18:53.930Z,81.48
2017-11-22T17:21:21.451Z,81.87
2017-11-22T17:23:48.975Z,81.62
2017-11-22T17:26:16.492Z,80.51
2017-11-22T17:28:44.028Z,80.99
2017-11-22T17:31:11.547Z,81.72
2017-11-22T17:33:39.067Z,81.45
2017-11-22T17:36:06.582Z,81.48
2017-11-22T17:38:34.105Z,80.55
2017-11-22T17:41:01.627Z,81.09
2017-11-22T17:43:29.142Z,81.50
2017-11-22T17:45:56.672Z,81.80
2017-11-22T17:48:24.192Z,82.21
2017-11-22T17:50:51.978Z,82.22
2017-11-22T17:53:19.534Z,82.58
2017-11-22T17:55:47.050Z,82.60
2017-11-22T17:58:14.562Z,82.45
2017-11-22T18:00:42.088Z,82.49
2017-11-22T18:03:09.619Z,83.02
2017-11-22T18:05:37.138Z,83.29
2017-11-22T18:08:04.650Z,83.36
2017-11-22T18:10:32.176Z,83.49
2017-11-22T18:12:59.792Z,83.59
2017-11-22T18:15:27.317Z,83.58
2017-11-22T18:17:54.840Z,83.36
2017-11-22T18:20:22.362Z,82.37
2017-11-22T18:22:49.902Z,82.84
2017-11-22T18:25:17.433Z,83.18
2017-11-22T18:27:44.957Z,83.28
2017-11-22T18:30:12.545Z,83.58
2017-11-22T18:32:40.081Z,83.90
2017-11-22T18:35:07.603Z,83.74
2017-11-22T18:37:35.127Z,84.10
2017-11-22T18:40:02.644Z,83.84
2017-11-22T18:42:30.166Z,84.10
2017-11-22T18:44:57.728Z,84.30
2017-11-22T18:47:25.250Z,84.32
2017-11-22T18:49:52.763Z,84.36
2017-11-22T18:52:20.308Z,84.66
2017-11-22T18:54:47.820Z,84.53
2017-11-22T18:57:15.336Z,84.60
2017-11-22T18:59:42.861Z,84.77
2017-11-22T19:02:10.378Z,84.74
2017-11-22T19:04:37.904Z,84.77
2017-11-22T19:07:05.426Z,85.07
2017-11-22T19:09:32.951Z,84.79
2017-11-22T19:12:00.491Z,84.97
2017-11-22T19:14:28.002Z,85.05
2017-11-22T19:16:55.534Z,85.18
2017-11-22T19:19:23.062Z,85.08
2017-11-22T19:21:50.579Z,85.30
2017-11-22T19:24:18.237Z,85.38
2017-11-22T19:26:45.770Z,85.62
2017-11-22T19:29:25.237Z,85.59
2017-11-22T19:31:52.762Z,85.83
2017-11-22T19:34:20.298Z,85.74
2017-11-22T19:36:47.820Z,86.05
2017-11-22T19:39:15.335Z,86.12
2017-11-22T19:41:42.862Z,86.14
2017-11-22T19:44:10.388Z,86.00
2017-11-22T19:46:37.912Z,85.82
2017-11-22T19:49:05.428Z,85.91
2017-11-22T19:51:32.954Z,86.13
2017-11-22T19:54:00.506Z,85.96
2017-11-22T19:56:28.032Z,86.01
2017-11-22T19:58:55.558Z,85.98
2017-11-22T20:01:23.104Z,86.00
2017-11-22T20:03:50.618Z,85.66
2017-11-22T20:06:18.131Z,85.76
2017-11-22T20:08:45.655Z,85.95
2017-11-22T20:11:13.170Z,85.85
2017-11-22T20:13:40.701Z,85.62
2017-11-22T20:16:08.234Z,85.93
2017-11-22T20:18:35.753Z,86.08
2017-11-22T20:21:03.270Z,86.21
2017-11-22T20:23:30.791Z,86.16
2017-11-22T20:25:58.316Z,86.29
2017-11-22T20:28:25.831Z,86.23
2017-11-22T20:30:53.359Z,86.59
2017-11-22T20:33:20.899Z,86.50
2017-11-22T20:35:48.420Z,86.59
2017-11-22T20:38:15.948Z,86.68
2017-11-22T20:40:43.474Z,86.69
2017-11-22T20:43:10.995Z,86.90
2017-11-22T20:45:38.531Z,86.92
2017-11-22T20:48:06.050Z,87.10
2017-11-22T20:50:33.566Z,86.98
2017-11-22T20:53:01.110Z,87.11
2017-11-22T20:55:28.628Z,87.26
2017-11-22T20:57:56.157Z,87.22
2017-11-22T21:00:23.673Z,87.28
2017-11-22T21:02:51.191Z,87.37
2017-11-22T21:05:18.737Z,87.46
2017-11-22T21:07:46.250Z,87.60
2017-11-22T21:10:13.795Z,87.59
2017-11-22T21:12:41.315Z,87.67
2017-11-22T21:15:08.861Z,87.75
2017-11-22T21:17:36.382Z,87.73
2017-11-22T21:20:03.923Z,87.81
2017-11-22T21:22:31.477Z,87.92
2017-11-22T21:24:59.008Z,88.08
2017-11-22T21:27:26.522Z,88.00
2017-11-22T21:29:54.063Z,88.14
2017-11-22T21:32:21.582Z,88.14
2017-11-22T21:34:49.114Z,88.10
2017-11-22T21:37:16.635Z,88.11
2017-11-22T21:39:44.250Z,88.35
2017-11-22T21:42:11.801Z,88.32
2017-11-22T21:44:39.419Z,88.40
2017-11-22T21:47:06.936Z,88.48
2017-11-22T21:49:34.456Z,88.56
2017-11-22T21:52:01.978Z,88.57
2017-11-22T21:54:29.495Z,88.59
2017-11-22T21:56:57.048Z,88.65
2017-11-22T21:59:24.698Z,88.64
2017-11-22T22:01:52.209Z,88.83
2017-11-22T22:04:19.731Z,88.69
2017-11-22T22:06:47.853Z,88.78
2017-11-22T22:09:15.530Z,88.92
2017-11-22T22:11:43.060Z,88.88
2017-11-22T22:14:10.650Z,88.96
2017-11-22T22:16:38.268Z,88.98
2017-11-22T22:19:05.797Z,89.00
2017-11-22T22:21:33.339Z,89.07
2017-11-22T22:24:00.878Z,89.12
2017-11-22T22:26:28.478Z,89.12
2017-11-22T22:28:55.995Z,89.19
2017-11-22T22:31:23.571Z,89.25
2017-11-22T22:33:51.102Z,89.43
2017-11-22T22:36:18.658Z,89.20
2017-11-22T22:38:46.180Z,89.28
2017-11-22T22:41:13.694Z,89.27
2017-11-22T22:43:41.217Z,89.20
2017-11-22T22:46:08.831Z,89.15
2017-11-22T22:48:36.374Z,89.10
2017-11-22T22:51:03.899Z,89.04
2017-11-22T22:53:31.418Z,89.07
2017-11-22T22:55:58.931Z,88.99
2017-11-22T22:58:26.526Z,89.53
2017-11-22T23:00:54.060Z,89.06
2017-11-22T23:03:21.574Z,89.11
2017-11-22T23:05:49.110Z,89.26
2017-11-22T23:08:16.675Z,89.04
2017-11-22T23:10:44.224Z,89.04
2017-11-22T23:13:11.887Z,89.09
2017-11-22T23:15:39.403Z,89.16
2017-11-22T23:18:06.925Z,89.37
2017-11-22T23:20:34.438Z,89.01
2017-11-22T23:23:01.986Z,89.03
2017-11-22T23:25:29.519Z,88.98
2017-11-22T23:27:57.037Z,88.98
2017-11-22T23:30:24.631Z,89.06
2017-11-22T23:32:52.156Z,89.22
2017-11-22T23:35:19.681Z,89.31
2017-11-22T23:37:47.207Z,89.31
2017-11-22T23:40:14.754Z,89.42
2017-11-22T23:42:42.289Z,89.24
2017-11-22T23:45:09.814Z,89.32
2017-11-22T23:47:37.335Z,89.36
2017-11-22T23:50:04.850Z,89.40
2017-11-22T23:52:32.373Z,89.41
2017-11-22T23:54:59.900Z,89.39
2017-11-22T23:57:27.420Z,89.30
2017-11-22T23:59:54.945Z,89.33
